Allenton, Michigan
Current Conditions -  °F | °C
As of 2:14 AM on Thursday 18 Dec 2014 (Local Time) from KD95 Reporting Station
Haze Haze  
Wind Chill: 18°   Ceiling: 800
Heat Index: 28°   Visibility: 5mi
Dew Point: 26°   Wind: 10mph
Humidity: 95%   Direction: 280°W
Pressure: 30.15"   Gusts: NA
Location:  42.92°N, 82.95°W
Report Text: KD95 180714Z AUTO 28009KT 5SM BR OVC008 M02/M03 A3015 RMK AO2 T10241031
Loading
Personal Weather Stations






























Interactive Weather Map New forecast layout! Learn more

10-Day Weather Forecast

Advertisements
Track Severe Weather on mobile